Little Rock, South Carolina
Current Conditions -  °F | °C
As of 11:35 AM on Wednesday 26 Nov 2014 (Local Time) from KMAO Reporting Station
Light Rain Light Rain  
Wind Chill: 50°   Ceiling: 1800
Heat Index: 50°   Visibility: 10mi
Dew Point: 48°   Wind: 5mph
Humidity: 94%   Direction: 330°NNW
Pressure: 29.91"   Gusts: NA
Location:  34.47°N, 79.41°W
Report Text: KMAO 261635Z AUTO 33004KT 10SM -RA OVC018 10/09 A2991 RMK AO2
Loading
Personal Weather Stations






























Interactive Weather Map New forecast layout! Learn more

10-Day Weather Forecast

Advertisements
Track Severe Weather on mobile